Saint Francis, Arkansas
Current Conditions -  °F | °C
As of 5:53 AM on Friday 24 Oct 2014 (Local Time) from KPOF Reporting Station
Haze Haze  
Wind Chill: 47°   Ceiling: 2800
Heat Index: 47°   Visibility: 6mi
Dew Point: 44°   Wind: 0mph
Humidity: 90%   Direction: NA
Pressure: 30.13"   Gusts: NA
Location:  36.45°N, 90.15°W
Report Text: KPOF 241053Z AUTO 00000KT 6SM BR OVC028 08/07 A3013 RMK AO2 SLP204 T00830067
Loading
Personal Weather Stations






























Interactive Weather Map
Tropical Storm Tracking
New forecast layout! Learn more

10-Day Weather Forecast

Advertisements
Track Severe Weather on mobile